createdAt,value
2018-04-27T00:01:14.667Z,13.03
2018-04-27T00:03:42.218Z,10.27
2018-04-27T00:06:09.602Z,11.43
2018-04-27T00:08:37.037Z,14.37
2018-04-27T00:11:04.646Z,11.73
2018-04-27T00:13:32.083Z,10.87
2018-04-27T00:15:59.454Z,11.43
2018-04-27T00:18:27.015Z,13.90
2018-04-27T00:20:54.501Z,12.10
2018-04-27T00:23:21.919Z,11.40
2018-04-27T00:25:49.296Z,12.50
2018-04-27T00:28:16.742Z,11.33
2018-04-27T00:30:44.299Z,14.80
2018-04-27T00:33:11.680Z,12.20
2018-04-27T00:35:39.084Z,12.27
2018-04-27T00:38:06.569Z,13.80
2018-04-27T00:40:33.986Z,12.03
2018-04-27T00:43:01.366Z,10.83
2018-04-27T00:45:28.763Z,15.93
2018-04-27T00:47:56.236Z,10.60
2018-04-27T00:50:24.470Z,10.10
2018-04-27T00:52:57.968Z,10.90
2018-04-27T00:55:25.346Z,10.00
2018-04-27T00:57:52.821Z,10.20
2018-04-27T01:00:20.238Z,10.57
2018-04-27T01:02:47.726Z,13.43
2018-04-27T01:05:15.161Z,11.33
2018-04-27T01:07:42.539Z,11.53
2018-04-27T01:10:09.996Z,10.80
2018-04-27T01:12:37.627Z,11.80
2018-04-27T01:15:05.123Z,10.80
2018-04-27T01:17:32.645Z,13.93
2018-04-27T01:20:00.203Z,12.43
2018-04-27T01:22:27.582Z,11.60
2018-04-27T01:24:55.015Z,13.37
2018-04-27T01:27:22.392Z,9.50
2018-04-27T01:29:49.927Z,11.70
2018-04-27T01:32:17.348Z,10.03
2018-04-27T01:34:44.716Z,9.93
2018-04-27T01:37:12.117Z,11.23
2018-04-27T01:39:39.654Z,10.40
2018-04-27T01:42:07.213Z,11.77
2018-04-27T01:44:34.629Z,13.20
2018-04-27T01:47:02.004Z,8.73
2018-04-27T01:49:29.427Z,10.03
2018-04-27T01:51:56.940Z,13.57
2018-04-27T01:54:24.501Z,12.60
2018-04-27T01:56:51.996Z,14.60
2018-04-27T01:59:19.414Z,12.17
2018-04-27T02:01:46.791Z,15.43
2018-04-27T02:04:14.737Z,15.17
2018-04-27T02:06:42.176Z,11.70
2018-04-27T02:09:09.588Z,15.47
2018-04-27T02:11:36.956Z,14.97
2018-04-27T02:14:04.379Z,13.40
2018-04-27T02:16:31.734Z,14.30
2018-04-27T02:18:59.142Z,14.43
2018-04-27T02:21:26.534Z,13.70
2018-04-27T02:23:53.907Z,13.40
2018-04-27T02:26:21.287Z,16.43
2018-04-27T02:28:48.642Z,13.80
2018-04-27T02:31:16.041Z,17.83
2018-04-27T02:33:43.443Z,14.10
2018-04-27T02:36:10.855Z,13.40
2018-04-27T02:38:38.303Z,14.73
2018-04-27T02:41:05.699Z,13.50
2018-04-27T02:43:33.075Z,13.33
2018-04-27T02:46:00.511Z,16.00
2018-04-27T02:48:27.924Z,18.40
2018-04-27T02:50:55.310Z,15.23
2018-04-27T02:53:22.681Z,13.47
2018-04-27T02:55:50.102Z,15.90
2018-04-27T02:58:17.548Z,19.53
2018-04-27T03:00:44.917Z,15.57
2018-04-27T03:03:12.309Z,17.33
2018-04-27T03:05:39.720Z,17.23
2018-04-27T03:08:07.104Z,15.03
2018-04-27T03:10:34.483Z,13.80
2018-04-27T03:13:01.823Z,14.77
2018-04-27T03:15:29.195Z,19.50
2018-04-27T03:17:56.608Z,16.13
2018-04-27T03:20:24.039Z,18.67
2018-04-27T03:22:51.390Z,17.97
2018-04-27T03:25:18.820Z,13.33
2018-04-27T03:27:46.182Z,13.07
2018-04-27T03:30:13.531Z,17.00
2018-04-27T03:32:40.931Z,16.30
2018-04-27T03:35:08.321Z,15.10
2018-04-27T03:37:35.696Z,15.80
2018-04-27T03:40:03.135Z,17.63
2018-04-27T03:42:30.515Z,17.20
2018-04-27T03:44:57.888Z,16.67
2018-04-27T03:47:25.277Z,16.00
2018-04-27T03:49:52.631Z,14.13
2018-04-27T03:52:19.989Z,19.50
2018-04-27T03:54:47.365Z,18.40
2018-04-27T03:57:14.740Z,15.57
2018-04-27T03:59:48.032Z,17.03
2018-04-27T04:02:21.312Z,17.27
2018-04-27T04:04:54.711Z,15.10
2018-04-27T04:07:22.088Z,17.40
2018-04-27T04:09:49.525Z,18.90
2018-04-27T04:12:16.917Z,16.93
2018-04-27T04:14:44.299Z,17.77
2018-04-27T04:17:11.719Z,20.00
2018-04-27T04:19:39.076Z,18.90
2018-04-27T04:22:06.427Z,19.17
2018-04-27T04:24:33.955Z,19.43
2018-04-27T04:27:01.332Z,20.20
2018-04-27T04:29:28.687Z,20.10
2018-04-27T04:31:56.213Z,18.30
2018-04-27T04:34:23.602Z,19.13
2018-04-27T04:36:51.096Z,20.90
2018-04-27T04:39:18.449Z,19.50
2018-04-27T04:41:45.846Z,20.73
2018-04-27T04:44:13.198Z,19.03
2018-04-27T04:46:40.555Z,22.02
2018-04-27T04:49:07.976Z,21.50
2018-04-27T04:51:35.342Z,19.60
2018-04-27T04:54:02.770Z,18.37
2018-04-27T04:56:30.197Z,24.77
2018-04-27T04:58:57.603Z,18.80
2018-04-27T05:01:25.036Z,21.90
2018-04-27T05:03:52.402Z,18.30
2018-04-27T05:06:19.788Z,23.27
2018-04-27T05:08:47.172Z,21.47
2018-04-27T05:11:14.524Z,19.93
2018-04-27T05:13:41.919Z,22.87
2018-04-27T05:16:09.463Z,24.07
2018-04-27T05:18:54.520Z,23.60
2018-04-27T05:21:21.951Z,21.20
2018-04-27T05:23:49.336Z,20.33
2018-04-27T05:26:16.733Z,21.73
2018-04-27T05:28:44.148Z,21.87
2018-04-27T05:31:17.481Z,20.47
2018-04-27T05:33:44.875Z,19.67
2018-04-27T05:36:12.222Z,25.40
2018-04-27T05:38:39.573Z,20.10
2018-04-27T05:41:06.987Z,25.17
2018-04-27T05:43:34.376Z,23.83
2018-04-27T05:46:01.810Z,24.07
2018-04-27T05:48:29.166Z,22.37
2018-04-27T05:50:56.552Z,21.07
2018-04-27T05:53:23.979Z,21.20
2018-04-27T05:55:51.334Z,21.70
2018-04-27T05:58:18.695Z,22.37
2018-04-27T06:00:46.072Z,22.80
2018-04-27T06:03:13.492Z,25.77
2018-04-27T06:05:40.887Z,22.23
2018-04-27T06:08:08.264Z,21.37
2018-04-27T06:10:35.675Z,24.87
2018-04-27T06:13:03.036Z,23.40
2018-04-27T06:15:30.510Z,23.00
2018-04-27T06:17:57.867Z,21.60
2018-04-27T06:20:25.213Z,23.93
2018-04-27T06:22:52.620Z,22.00
2018-04-27T06:25:20.125Z,23.80
2018-04-27T06:27:47.527Z,20.80
2018-04-27T06:30:14.886Z,21.07
2018-04-27T06:32:42.312Z,22.80
2018-04-27T06:35:09.748Z,21.27
2018-04-27T06:37:37.184Z,23.33
2018-04-27T06:40:04.567Z,20.37
2018-04-27T06:42:31.927Z,22.03
2018-04-27T06:44:59.352Z,20.37
2018-04-27T06:47:26.712Z,22.80
2018-04-27T06:49:54.136Z,20.30
2018-04-27T06:52:21.524Z,25.40
2018-04-27T06:54:48.915Z,22.80
2018-04-27T06:57:16.340Z,22.17
2018-04-27T06:59:43.755Z,25.13
2018-04-27T07:02:11.149Z,21.50
2018-04-27T07:04:38.588Z,22.17
2018-04-27T07:07:05.984Z,18.63
2018-04-27T07:09:33.436Z,21.30
2018-04-27T07:12:00.820Z,22.20
2018-04-27T07:14:28.350Z,23.93
2018-04-27T07:16:55.812Z,19.73
2018-04-27T07:19:23.207Z,24.67
2018-04-27T07:21:50.558Z,23.23
2018-04-27T07:24:17.769Z,22.80
2018-04-27T07:26:45.154Z,22.63
2018-04-27T07:29:12.563Z,26.20
2018-04-27T07:31:39.926Z,22.00
2018-04-27T07:34:07.327Z,24.73
2018-04-27T07:36:34.727Z,22.77
2018-04-27T07:39:02.152Z,25.00
2018-04-27T07:41:29.524Z,24.60
2018-04-27T07:43:56.914Z,25.20
2018-04-27T07:46:24.263Z,23.83
2018-04-27T07:48:51.648Z,22.77
2018-04-27T07:51:19.025Z,23.30
2018-04-27T07:53:46.386Z,24.00
2018-04-27T07:56:13.864Z,25.50
2018-04-27T07:58:41.283Z,23.20
2018-04-27T08:01:08.701Z,21.57
2018-04-27T08:03:36.091Z,25.30
2018-04-27T08:06:03.504Z,18.80
2018-04-27T08:08:30.886Z,18.57
2018-04-27T08:10:58.236Z,23.77
2018-04-27T08:13:25.671Z,21.73
2018-04-27T08:15:53.611Z,21.80
2018-04-27T08:18:20.972Z,23.10
2018-04-27T08:20:49.069Z,22.50
2018-04-27T08:23:16.458Z,21.10
2018-04-27T08:25:43.822Z,20.83
2018-04-27T08:28:11.219Z,21.23
2018-04-27T08:30:38.604Z,20.97
2018-04-27T08:33:05.992Z,20.10
2018-04-27T08:35:33.370Z,18.33
2018-04-27T08:38:00.795Z,20.20
2018-04-27T08:40:28.602Z,21.83
2018-04-27T08:42:56.027Z,19.47
2018-04-27T08:45:23.431Z,17.00
2018-04-27T08:47:50.815Z,18.40
2018-04-27T08:50:18.213Z,18.13
2018-04-27T08:52:46.272Z,23.87
2018-04-27T08:55:13.634Z,21.93
2018-04-27T08:57:41.024Z,22.73
2018-04-27T09:00:08.449Z,18.87
2018-04-27T09:02:35.842Z,23.00
2018-04-27T09:05:03.720Z,23.97
2018-04-27T09:07:31.125Z,18.23
2018-04-27T09:09:58.518Z,20.73
2018-04-27T09:12:25.937Z,21.50
2018-04-27T09:14:53.299Z,18.40
2018-04-27T09:17:20.946Z,17.03
2018-04-27T09:19:48.335Z,16.20
2018-04-27T09:22:15.712Z,17.97
2018-04-27T09:24:43.106Z,18.87
2018-04-27T09:27:10.455Z,16.83
2018-04-27T09:29:38.568Z,14.50
2018-04-27T09:32:05.973Z,16.77
2018-04-27T09:34:33.323Z,14.20
2018-04-27T09:37:00.732Z,19.53
2018-04-27T09:39:28.122Z,20.43
2018-04-27T09:41:55.868Z,16.93
2018-04-27T09:44:23.268Z,17.03
2018-04-27T09:46:50.767Z,19.00
2018-04-27T09:49:18.188Z,15.03
2018-04-27T09:51:45.604Z,16.00
2018-04-27T09:54:13.066Z,12.57
2018-04-27T09:56:40.443Z,16.70
2018-04-27T09:59:07.816Z,12.50
2018-04-27T10:01:35.220Z,13.60
2018-04-27T10:04:02.567Z,13.30
2018-04-27T10:06:29.940Z,14.90
2018-04-27T10:08:57.659Z,9.93
2018-04-27T10:11:25.108Z,10.50
2018-04-27T10:13:52.475Z,14.30
2018-04-27T10:16:19.883Z,13.33
2018-04-27T10:18:47.298Z,14.10
2018-04-27T10:21:14.679Z,11.30
2018-04-27T10:23:42.405Z,14.20
2018-04-27T10:26:09.786Z,12.13
2018-04-27T10:28:37.123Z,15.57
2018-04-27T10:31:04.539Z,14.73
2018-04-27T10:33:31.931Z,14.03
2018-04-27T10:35:59.869Z,16.50
2018-04-27T10:38:27.244Z,12.80
2018-04-27T10:40:54.632Z,14.53
2018-04-27T10:43:23.000Z,12.33
2018-04-27T10:45:50.457Z,11.97
2018-04-27T10:48:17.830Z,12.20
2018-04-27T10:50:48.507Z,15.97
2018-04-27T10:53:15.892Z,17.23
2018-04-27T10:55:43.299Z,11.50
2018-04-27T10:58:10.728Z,13.73
2018-04-27T11:00:38.117Z,14.20
2018-04-27T11:03:05.891Z,12.10
2018-04-27T11:05:33.276Z,12.77
2018-04-27T11:08:00.667Z,13.33
2018-04-27T11:10:28.423Z,9.60
2018-04-27T11:12:55.810Z,14.83
2018-04-27T11:15:23.219Z,14.47
2018-04-27T11:17:50.997Z,10.97
2018-04-27T11:20:18.446Z,9.37
2018-04-27T11:22:45.824Z,9.03
2018-04-27T11:25:13.167Z,12.27
2018-04-27T11:27:40.549Z,11.97
2018-04-27T11:30:07.935Z,9.80
2018-04-27T11:32:35.940Z,9.37
2018-04-27T11:35:03.281Z,11.57
2018-04-27T11:37:47.306Z,12.03
2018-04-27T11:40:14.665Z,8.67
2018-04-27T11:42:42.664Z,9.60
2018-04-27T11:45:10.027Z,8.70
2018-04-27T11:47:37.396Z,9.50
2018-04-27T11:50:04.833Z,8.80
2018-04-27T11:52:32.181Z,9.60
2018-04-27T11:54:59.580Z,7.70
2018-04-27T11:57:26.976Z,8.10
2018-04-27T11:59:54.348Z,9.03
2018-04-27T12:02:21.721Z,7.33
2018-04-27T12:04:49.119Z,8.70
2018-04-27T12:07:16.498Z,10.30
2018-04-27T12:09:43.912Z,8.40
2018-04-27T12:12:11.245Z,9.23
2018-04-27T12:14:38.622Z,10.60
2018-04-27T12:17:05.997Z,8.33
2018-04-27T12:19:34.114Z,7.23
2018-04-27T12:22:01.466Z,11.80
2018-04-27T12:24:28.886Z,15.13
2018-04-27T12:26:56.239Z,6.70
2018-04-27T12:29:23.611Z,9.73
2018-04-27T12:31:51.480Z,11.10
2018-04-27T12:34:18.867Z,7.17
2018-04-27T12:36:46.286Z,7.23
2018-04-27T12:39:13.652Z,7.10
2018-04-27T12:41:41.027Z,7.07
2018-04-27T12:44:08.732Z,6.63
2018-04-27T12:46:36.070Z,11.47
2018-04-27T12:49:03.426Z,8.03
2018-04-27T12:51:30.840Z,9.03
2018-04-27T12:53:58.267Z,6.30
2018-04-27T12:56:25.616Z,5.33
2018-04-27T12:58:52.978Z,8.70
2018-04-27T13:01:20.351Z,6.73
2018-04-27T13:03:48.423Z,7.30
2018-04-27T13:06:15.796Z,6.10
2018-04-27T13:08:43.211Z,12.07
2018-04-27T13:11:10.587Z,7.27
2018-04-27T13:13:38.992Z,6.37
2018-04-27T13:16:06.386Z,6.87
2018-04-27T13:18:34.272Z,5.23
2018-04-27T13:21:02.491Z,3.80
2018-04-27T13:23:29.842Z,8.03
2018-04-27T13:25:57.203Z,5.17
2018-04-27T13:28:24.639Z,6.93
2018-04-27T13:30:52.020Z,7.20
2018-04-27T13:33:19.427Z,8.60
2018-04-27T13:35:46.791Z,6.70
2018-04-27T13:38:14.676Z,8.20
2018-04-27T13:40:42.151Z,5.17
2018-04-27T13:43:09.489Z,6.80
2018-04-27T13:45:37.011Z,5.60
2018-04-27T13:48:04.352Z,5.93
2018-04-27T13:50:31.730Z,8.40
2018-04-27T13:52:59.096Z,6.07
2018-04-27T13:55:26.463Z,7.67
2018-04-27T13:57:53.872Z,8.07
2018-04-27T14:00:21.402Z,6.33
2018-04-27T14:02:48.761Z,6.67
2018-04-27T14:05:16.098Z,8.83
2018-04-27T14:07:44.088Z,6.73
2018-04-27T14:10:11.434Z,7.10
2018-04-27T14:12:38.818Z,7.33
2018-04-27T14:15:06.169Z,6.27
2018-04-27T14:17:33.506Z,8.93
2018-04-27T14:20:01.009Z,7.23
2018-04-27T14:22:28.304Z,7.37
2018-04-27T14:24:55.720Z,7.00
2018-04-27T14:27:23.156Z,7.20
2018-04-27T14:29:50.552Z,7.13
2018-04-27T14:32:17.952Z,8.47
2018-04-27T14:34:45.386Z,4.47
2018-04-27T14:37:13.038Z,6.53
2018-04-27T14:39:40.664Z,5.47
2018-04-27T14:42:08.032Z,8.37
2018-04-27T14:44:35.449Z,6.40
2018-04-27T14:47:02.824Z,5.50
2018-04-27T14:49:30.193Z,5.83
2018-04-27T14:51:57.587Z,7.00
2018-04-27T14:54:24.952Z,6.70
2018-04-27T14:56:52.289Z,5.60
2018-04-27T14:59:19.684Z,7.93
2018-04-27T15:01:47.085Z,5.37
2018-04-27T15:04:14.453Z,5.43
2018-04-27T15:06:42.934Z,8.17
2018-04-27T15:09:10.310Z,5.17
2018-04-27T15:11:38.275Z,9.20
2018-04-27T15:14:05.719Z,6.70
2018-04-27T15:16:33.091Z,7.10
2018-04-27T15:19:00.468Z,8.13
2018-04-27T15:21:28.470Z,7.13
2018-04-27T15:23:55.923Z,6.10
2018-04-27T15:26:23.264Z,5.60
2018-04-27T15:28:50.663Z,5.53
2018-04-27T15:31:18.010Z,5.43
2018-04-27T15:33:48.896Z,5.27
2018-04-27T15:36:16.259Z,5.23
2018-04-27T15:38:43.626Z,4.73
2018-04-27T15:41:11.024Z,7.40
2018-04-27T15:43:39.118Z,5.27
2018-04-27T15:46:06.546Z,6.30
2018-04-27T15:48:33.927Z,4.60
2018-04-27T15:51:01.940Z,6.30
2018-04-27T15:53:29.582Z,7.80
2018-04-27T15:55:57.500Z,5.27
2018-04-27T15:58:24.898Z,6.03
2018-04-27T16:00:52.281Z,5.40
2018-04-27T16:03:19.749Z,5.80
2018-04-27T16:05:47.837Z,4.60
2018-04-27T16:08:15.338Z,4.10
2018-04-27T16:10:42.679Z,4.57
2018-04-27T16:13:15.831Z,4.43
2018-04-27T16:15:43.244Z,3.97
2018-04-27T16:18:11.382Z,5.33
2018-04-27T16:20:38.758Z,7.77
2018-04-27T16:23:06.099Z,11.90
2018-04-27T16:25:34.142Z,4.47
2018-04-27T16:28:01.547Z,5.10
2018-04-27T16:30:28.915Z,4.63
2018-04-27T16:32:56.403Z,7.37
2018-04-27T16:35:23.775Z,5.90
2018-04-27T16:37:51.183Z,6.13
2018-04-27T16:40:18.519Z,4.00
2018-04-27T16:42:46.561Z,6.13
2018-04-27T16:45:13.941Z,7.30
2018-04-27T16:47:41.310Z,5.80
2018-04-27T16:50:08.674Z,4.30
2018-04-27T16:52:36.011Z,4.77
2018-04-27T16:55:03.412Z,4.20
2018-04-27T16:57:30.824Z,5.67
2018-04-27T16:59:58.407Z,5.87
2018-04-27T17:02:25.817Z,6.40
2018-04-27T17:04:53.264Z,4.70
2018-04-27T17:07:20.636Z,5.03
2018-04-27T17:09:48.037Z,5.50
2018-04-27T17:12:15.383Z,4.97
2018-04-27T17:14:42.754Z,6.40
2018-04-27T17:17:10.753Z,4.57
2018-04-27T17:19:38.825Z,5.53
2018-04-27T23:40:13.780Z,15.43
2018-04-27T23:42:42.124Z,16.83
2018-04-27T23:45:09.483Z,16.10
2018-04-27T23:47:36.896Z,19.73
2018-04-27T23:50:04.242Z,14.87
2018-04-27T23:52:31.668Z,17.43
2018-04-27T23:54:59.028Z,16.70
2018-04-27T23:57:26.380Z,14.83
2018-04-27T23:59:53.784Z,14.83
